sensor_id;sensor_type;location;lat;lon;timestamp;P1;durP1;ratioP1;P2;durP2;ratioP2
7607;SDS011;3845;48.120;11.534;2023-10-08T00:00:51;5.47;;;3.33;;
7607;SDS011;3845;48.120;11.534;2023-10-08T00:03:21;4.73;;;3.20;;
7607;SDS011;3845;48.120;11.534;2023-10-08T00:05:46;5.23;;;3.10;;
7607;SDS011;3845;48.120;11.534;2023-10-08T00:08:14;4.23;;;3.20;;
7607;SDS011;3845;48.120;11.534;2023-10-08T00:10:41;4.13;;;2.80;;
7607;SDS011;3845;48.120;11.534;2023-10-08T00:13:08;4.70;;;3.40;;
7607;SDS011;3845;48.120;11.534;2023-10-08T00:15:44;4.03;;;3.07;;
7607;SDS011;3845;48.120;11.534;2023-10-08T00:18:22;4.50;;;3.07;;
7607;SDS011;3845;48.120;11.534;2023-10-08T00:20:51;5.83;;;4.90;;
7607;SDS011;3845;48.120;11.534;2023-10-08T00:23:31;4.77;;;3.63;;
7607;SDS011;3845;48.120;11.534;2023-10-08T00:26:00;5.23;;;3.30;;
7607;SDS011;3845;48.120;11.534;2023-10-08T00:28:29;5.97;;;3.10;;
7607;SDS011;3845;48.120;11.534;2023-10-08T00:30:56;4.47;;;2.93;;
7607;SDS011;3845;48.120;11.534;2023-10-08T00:33:22;5.93;;;3.83;;
7607;SDS011;3845;48.120;11.534;2023-10-08T00:35:47;4.43;;;3.30;;
7607;SDS011;3845;48.120;11.534;2023-10-08T00:38:13;4.50;;;3.10;;
7607;SDS011;3845;48.120;11.534;2023-10-08T00:40:45;4.00;;;2.83;;
7607;SDS011;3845;48.120;11.534;2023-10-08T00:43:29;5.37;;;3.00;;
7607;SDS011;3845;48.120;11.534;2023-10-08T00:46:04;4.23;;;2.70;;
7607;SDS011;3845;48.120;11.534;2023-10-08T00:48:29;4.47;;;3.23;;
7607;SDS011;3845;48.120;11.534;2023-10-08T00:51:04;4.43;;;3.10;;
7607;SDS011;3845;48.120;11.534;2023-10-08T00:53:49;4.53;;;3.03;;
7607;SDS011;3845;48.120;11.534;2023-10-08T00:56:18;6.40;;;3.60;;
7607;SDS011;3845;48.120;11.534;2023-10-08T00:58:44;7.43;;;3.50;;
7607;SDS011;3845;48.120;11.534;2023-10-08T01:01:13;6.07;;;3.27;;
7607;SDS011;3845;48.120;11.534;2023-10-08T01:03:41;5.10;;;3.10;;
7607;SDS011;3845;48.120;11.534;2023-10-08T01:06:10;4.30;;;2.63;;
7607;SDS011;3845;48.120;11.534;2023-10-08T01:08:36;5.67;;;2.93;;
7607;SDS011;3845;48.120;11.534;2023-10-08T01:11:23;4.10;;;3.10;;
7607;SDS011;3845;48.120;11.534;2023-10-08T01:14:10;5.57;;;3.73;;
7607;SDS011;3845;48.120;11.534;2023-10-08T01:16:35;5.30;;;3.50;;
7607;SDS011;3845;48.120;11.534;2023-10-08T01:19:01;5.93;;;3.93;;
7607;SDS011;3845;48.120;11.534;2023-10-08T01:21:30;5.40;;;3.83;;
7607;SDS011;3845;48.120;11.534;2023-10-08T01:24:04;5.67;;;3.10;;
7607;SDS011;3845;48.120;11.534;2023-10-08T01:26:32;4.17;;;2.87;;
7607;SDS011;3845;48.120;11.534;2023-10-08T01:28:58;4.67;;;3.00;;
7607;SDS011;3845;48.120;11.534;2023-10-08T01:31:32;5.00;;;3.20;;
7607;SDS011;3845;48.120;11.534;2023-10-08T01:33:58;7.27;;;3.30;;
7607;SDS011;3845;48.120;11.534;2023-10-08T01:36:26;3.57;;;2.70;;
7607;SDS011;3845;48.120;11.534;2023-10-08T01:38:52;5.00;;;3.00;;
7607;SDS011;3845;48.120;11.534;2023-10-08T01:41:19;5.00;;;2.90;;
7607;SDS011;3845;48.120;11.534;2023-10-08T01:43:46;4.27;;;2.80;;
7607;SDS011;3845;48.120;11.534;2023-10-08T01:46:11;4.53;;;2.97;;
7607;SDS011;3845;48.120;11.534;2023-10-08T01:48:37;4.57;;;2.87;;
7607;SDS011;3845;48.120;11.534;2023-10-08T01:51:04;5.20;;;3.00;;
7607;SDS011;3845;48.120;11.534;2023-10-08T01:53:36;5.50;;;3.03;;
7607;SDS011;3845;48.120;11.534;2023-10-08T01:56:01;4.37;;;2.83;;
7607;SDS011;3845;48.120;11.534;2023-10-08T01:58:29;5.03;;;2.77;;
7607;SDS011;3845;48.120;11.534;2023-10-08T02:00:54;6.10;;;2.80;;
7607;SDS011;3845;48.120;11.534;2023-10-08T02:03:23;5.07;;;3.20;;
7607;SDS011;3845;48.120;11.534;2023-10-08T02:05:49;5.00;;;3.10;;
7607;SDS011;3845;48.120;11.534;2023-10-08T02:08:18;4.57;;;2.90;;
7607;SDS011;3845;48.120;11.534;2023-10-08T02:10:44;5.07;;;2.60;;
7607;SDS011;3845;48.120;11.534;2023-10-08T02:13:12;6.23;;;4.43;;
7607;SDS011;3845;48.120;11.534;2023-10-08T02:15:43;6.27;;;3.23;;
7607;SDS011;3845;48.120;11.534;2023-10-08T02:18:09;5.13;;;3.47;;
7607;SDS011;3845;48.120;11.534;2023-10-08T02:20:35;5.17;;;3.07;;
7607;SDS011;3845;48.120;11.534;2023-10-08T02:23:00;6.03;;;3.20;;
7607;SDS011;3845;48.120;11.534;2023-10-08T02:25:26;5.67;;;3.00;;
7607;SDS011;3845;48.120;11.534;2023-10-08T02:27:51;4.70;;;3.00;;
7607;SDS011;3845;48.120;11.534;2023-10-08T02:30:17;4.57;;;2.83;;
7607;SDS011;3845;48.120;11.534;2023-10-08T02:32:43;5.53;;;3.30;;
7607;SDS011;3845;48.120;11.534;2023-10-08T02:35:09;4.50;;;2.90;;
7607;SDS011;3845;48.120;11.534;2023-10-08T02:37:36;5.27;;;3.50;;
7607;SDS011;3845;48.120;11.534;2023-10-08T02:40:05;4.67;;;3.43;;
7607;SDS011;3845;48.120;11.534;2023-10-08T02:42:39;5.13;;;3.60;;
7607;SDS011;3845;48.120;11.534;2023-10-08T02:45:06;4.83;;;3.73;;
7607;SDS011;3845;48.120;11.534;2023-10-08T02:47:38;6.37;;;3.80;;
7607;SDS011;3845;48.120;11.534;2023-10-08T02:50:05;6.03;;;3.30;;
7607;SDS011;3845;48.120;11.534;2023-10-08T02:52:33;7.20;;;3.03;;
7607;SDS011;3845;48.120;11.534;2023-10-08T02:54:59;6.67;;;4.00;;
7607;SDS011;3845;48.120;11.534;2023-10-08T02:57:25;6.53;;;3.60;;
7607;SDS011;3845;48.120;11.534;2023-10-08T02:59:54;5.07;;;3.47;;
7607;SDS011;3845;48.120;11.534;2023-10-08T03:02:19;6.13;;;3.23;;
7607;SDS011;3845;48.120;11.534;2023-10-08T03:04:46;8.63;;;3.00;;
7607;SDS011;3845;48.120;11.534;2023-10-08T03:07:13;4.27;;;2.93;;
7607;SDS011;3845;48.120;11.534;2023-10-08T03:09:47;4.10;;;2.60;;
7607;SDS011;3845;48.120;11.534;2023-10-08T03:12:15;6.17;;;3.27;;
7607;SDS011;3845;48.120;11.534;2023-10-08T03:14:42;4.00;;;2.73;;
7607;SDS011;3845;48.120;11.534;2023-10-08T03:17:15;5.20;;;2.63;;
7607;SDS011;3845;48.120;11.534;2023-10-08T03:19:48;4.03;;;2.57;;
7607;SDS011;3845;48.120;11.534;2023-10-08T03:22:13;5.67;;;3.20;;
7607;SDS011;3845;48.120;11.534;2023-10-08T03:24:43;4.50;;;3.07;;
7607;SDS011;3845;48.120;11.534;2023-10-08T03:27:09;4.83;;;2.63;;
7607;SDS011;3845;48.120;11.534;2023-10-08T03:29:40;3.80;;;2.60;;
7607;SDS011;3845;48.120;11.534;2023-10-08T03:32:10;5.83;;;2.80;;
7607;SDS011;3845;48.120;11.534;2023-10-08T03:34:39;6.77;;;3.80;;
7607;SDS011;3845;48.120;11.534;2023-10-08T03:37:08;7.57;;;3.50;;
7607;SDS011;3845;48.120;11.534;2023-10-08T03:39:34;5.40;;;2.90;;
7607;SDS011;3845;48.120;11.534;2023-10-08T03:42:25;4.60;;;2.53;;
7607;SDS011;3845;48.120;11.534;2023-10-08T03:44:51;4.13;;;2.50;;
7607;SDS011;3845;48.120;11.534;2023-10-08T03:47:21;5.23;;;2.53;;
7607;SDS011;3845;48.120;11.534;2023-10-08T03:49:52;4.90;;;2.60;;
7607;SDS011;3845;48.120;11.534;2023-10-08T03:52:19;5.90;;;2.77;;
7607;SDS011;3845;48.120;11.534;2023-10-08T03:54:48;6.70;;;3.07;;
7607;SDS011;3845;48.120;11.534;2023-10-08T03:57:15;7.30;;;2.93;;
7607;SDS011;3845;48.120;11.534;2023-10-08T03:59:50;5.43;;;2.90;;
7607;SDS011;3845;48.120;11.534;2023-10-08T04:02:20;3.50;;;2.47;;
7607;SDS011;3845;48.120;11.534;2023-10-08T04:04:49;3.43;;;2.40;;
7607;SDS011;3845;48.120;11.534;2023-10-08T04:07:38;4.27;;;2.80;;
7607;SDS011;3845;48.120;11.534;2023-10-08T04:10:28;6.67;;;3.37;;
7607;SDS011;3845;48.120;11.534;2023-10-08T04:13:23;3.97;;;2.80;;
7607;SDS011;3845;48.120;11.534;2023-10-08T04:15:49;5.80;;;3.10;;
7607;SDS011;3845;48.120;11.534;2023-10-08T04:18:15;6.63;;;3.43;;
7607;SDS011;3845;48.120;11.534;2023-10-08T04:20:40;4.03;;;2.80;;
7607;SDS011;3845;48.120;11.534;2023-10-08T04:23:24;3.70;;;2.30;;
7607;SDS011;3845;48.120;11.534;2023-10-08T04:25:49;3.83;;;2.67;;
7607;SDS011;3845;48.120;11.534;2023-10-08T04:28:19;5.80;;;2.60;;
7607;SDS011;3845;48.120;11.534;2023-10-08T04:30:45;4.47;;;2.70;;
7607;SDS011;3845;48.120;11.534;2023-10-08T04:33:13;5.43;;;2.47;;
7607;SDS011;3845;48.120;11.534;2023-10-08T04:35:40;8.70;;;5.90;;
7607;SDS011;3845;48.120;11.534;2023-10-08T04:38:13;8.83;;;4.57;;
7607;SDS011;3845;48.120;11.534;2023-10-08T04:40:42;7.03;;;4.30;;
7607;SDS011;3845;48.120;11.534;2023-10-08T04:43:13;10.60;;;6.60;;
7607;SDS011;3845;48.120;11.534;2023-10-08T04:45:50;8.23;;;5.63;;
7607;SDS011;3845;48.120;11.534;2023-10-08T04:48:16;8.83;;;4.67;;
7607;SDS011;3845;48.120;11.534;2023-10-08T04:50:45;6.37;;;3.60;;
7607;SDS011;3845;48.120;11.534;2023-10-08T04:53:23;6.17;;;3.27;;
7607;SDS011;3845;48.120;11.534;2023-10-08T04:56:01;4.60;;;3.00;;
7607;SDS011;3845;48.120;11.534;2023-10-08T04:58:31;6.53;;;3.00;;
7607;SDS011;3845;48.120;11.534;2023-10-08T05:01:02;4.60;;;2.63;;
7607;SDS011;3845;48.120;11.534;2023-10-08T05:06:19;6.57;;;2.70;;
7607;SDS011;3845;48.120;11.534;2023-10-08T05:08:55;5.43;;;2.60;;
7607;SDS011;3845;48.120;11.534;2023-10-08T05:11:24;4.70;;;2.60;;
7607;SDS011;3845;48.120;11.534;2023-10-08T05:14:07;5.03;;;2.60;;
7607;SDS011;3845;48.120;11.534;2023-10-08T05:16:41;6.13;;;2.43;;
7607;SDS011;3845;48.120;11.534;2023-10-08T05:19:25;6.50;;;3.10;;
7607;SDS011;3845;48.120;11.534;2023-10-08T05:22:02;4.93;;;2.60;;
7607;SDS011;3845;48.120;11.534;2023-10-08T05:24:43;5.03;;;2.80;;
7607;SDS011;3845;48.120;11.534;2023-10-08T05:27:34;5.50;;;2.90;;
7607;SDS011;3845;48.120;11.534;2023-10-08T05:30:25;5.03;;;2.40;;
7607;SDS011;3845;48.120;11.534;2023-10-08T05:33:07;4.30;;;2.47;;
7607;SDS011;3845;48.120;11.534;2023-10-08T05:35:42;8.57;;;3.10;;
7607;SDS011;3845;48.120;11.534;2023-10-08T05:38:09;5.73;;;2.60;;
7607;SDS011;3845;48.120;11.534;2023-10-08T05:40:39;3.93;;;2.47;;
7607;SDS011;3845;48.120;11.534;2023-10-08T05:43:20;6.63;;;2.70;;
7607;SDS011;3845;48.120;11.534;2023-10-08T05:48:51;4.13;;;2.10;;
7607;SDS011;3845;48.120;11.534;2023-10-08T05:51:28;3.87;;;2.20;;
7607;SDS011;3845;48.120;11.534;2023-10-08T05:54:23;5.93;;;3.00;;
7607;SDS011;3845;48.120;11.534;2023-10-08T05:56:57;3.83;;;2.60;;
7607;SDS011;3845;48.120;11.534;2023-10-08T05:59:38;3.57;;;2.30;;
7607;SDS011;3845;48.120;11.534;2023-10-08T06:02:29;4.33;;;2.10;;
7607;SDS011;3845;48.120;11.534;2023-10-08T06:05:06;3.20;;;2.10;;
7607;SDS011;3845;48.120;11.534;2023-10-08T06:07:42;3.57;;;2.20;;
7607;SDS011;3845;48.120;11.534;2023-10-08T06:10:37;3.37;;;2.27;;
7607;SDS011;3845;48.120;11.534;2023-10-08T06:13:03;8.20;;;2.90;;
7607;SDS011;3845;48.120;11.534;2023-10-08T06:15:41;5.77;;;3.27;;
7607;SDS011;3845;48.120;11.534;2023-10-08T06:18:18;3.97;;;2.73;;
7607;SDS011;3845;48.120;11.534;2023-10-08T06:20:45;6.53;;;3.30;;
7607;SDS011;3845;48.120;11.534;2023-10-08T06:23:11;4.93;;;3.20;;
7607;SDS011;3845;48.120;11.534;2023-10-08T06:25:40;7.80;;;3.53;;
7607;SDS011;3845;48.120;11.534;2023-10-08T06:28:15;7.00;;;3.20;;
7607;SDS011;3845;48.120;11.534;2023-10-08T06:30:46;5.40;;;3.30;;
7607;SDS011;3845;48.120;11.534;2023-10-08T06:33:12;6.30;;;3.50;;
7607;SDS011;3845;48.120;11.534;2023-10-08T06:35:39;5.17;;;3.10;;
7607;SDS011;3845;48.120;11.534;2023-10-08T06:38:09;7.77;;;3.40;;
7607;SDS011;3845;48.120;11.534;2023-10-08T06:40:35;6.27;;;3.77;;
7607;SDS011;3845;48.120;11.534;2023-10-08T06:43:01;5.13;;;3.40;;
7607;SDS011;3845;48.120;11.534;2023-10-08T06:45:46;5.77;;;3.40;;
7607;SDS011;3845;48.120;11.534;2023-10-08T06:48:13;5.53;;;3.43;;
7607;SDS011;3845;48.120;11.534;2023-10-08T06:50:50;4.90;;;3.30;;
7607;SDS011;3845;48.120;11.534;2023-10-08T06:53:21;6.13;;;3.23;;
7607;SDS011;3845;48.120;11.534;2023-10-08T06:55:47;7.67;;;3.70;;
7607;SDS011;3845;48.120;11.534;2023-10-08T06:58:25;7.87;;;3.90;;
7607;SDS011;3845;48.120;11.534;2023-10-08T07:00:51;7.87;;;3.47;;
7607;SDS011;3845;48.120;11.534;2023-10-08T07:03:17;6.13;;;3.40;;
7607;SDS011;3845;48.120;11.534;2023-10-08T07:05:46;5.43;;;3.00;;
7607;SDS011;3845;48.120;11.534;2023-10-08T07:08:22;5.50;;;3.27;;
7607;SDS011;3845;48.120;11.534;2023-10-08T07:10:49;5.77;;;3.27;;
7607;SDS011;3845;48.120;11.534;2023-10-08T07:13:15;8.30;;;5.53;;
7607;SDS011;3845;48.120;11.534;2023-10-08T07:15:43;10.27;;;6.37;;
7607;SDS011;3845;48.120;11.534;2023-10-08T07:18:11;7.63;;;4.37;;
7607;SDS011;3845;48.120;11.534;2023-10-08T07:20:40;7.17;;;4.47;;
7607;SDS011;3845;48.120;11.534;2023-10-08T07:23:10;5.37;;;3.40;;
7607;SDS011;3845;48.120;11.534;2023-10-08T07:25:51;7.90;;;3.70;;
7607;SDS011;3845;48.120;11.534;2023-10-08T07:28:18;6.90;;;3.57;;
7607;SDS011;3845;48.120;11.534;2023-10-08T07:30:45;8.93;;;3.57;;
7607;SDS011;3845;48.120;11.534;2023-10-08T07:33:14;8.03;;;3.83;;
7607;SDS011;3845;48.120;11.534;2023-10-08T07:35:50;5.43;;;3.33;;
7607;SDS011;3845;48.120;11.534;2023-10-08T07:38:36;8.07;;;4.13;;
7607;SDS011;3845;48.120;11.534;2023-10-08T07:41:02;6.07;;;4.30;;
7607;SDS011;3845;48.120;11.534;2023-10-08T07:43:27;7.20;;;4.70;;
7607;SDS011;3845;48.120;11.534;2023-10-08T07:45:57;6.97;;;4.00;;
7607;SDS011;3845;48.120;11.534;2023-10-08T07:48:23;7.80;;;4.80;;
7607;SDS011;3845;48.120;11.534;2023-10-08T07:50:54;8.23;;;4.47;;
7607;SDS011;3845;48.120;11.534;2023-10-08T07:53:20;8.57;;;3.90;;
7607;SDS011;3845;48.120;11.534;2023-10-08T07:55:46;11.20;;;5.47;;
7607;SDS011;3845;48.120;11.534;2023-10-08T07:58:13;8.70;;;4.70;;
7607;SDS011;3845;48.120;11.534;2023-10-08T08:00:39;6.27;;;3.53;;
7607;SDS011;3845;48.120;11.534;2023-10-08T08:03:06;9.07;;;3.97;;
7607;SDS011;3845;48.120;11.534;2023-10-08T08:05:31;7.67;;;4.17;;
7607;SDS011;3845;48.120;11.534;2023-10-08T08:07:58;5.63;;;3.30;;
7607;SDS011;3845;48.120;11.534;2023-10-08T08:10:30;9.53;;;3.83;;
7607;SDS011;3845;48.120;11.534;2023-10-08T08:13:01;8.87;;;4.00;;
7607;SDS011;3845;48.120;11.534;2023-10-08T08:15:26;14.67;;;4.40;;
7607;SDS011;3845;48.120;11.534;2023-10-08T08:17:53;9.00;;;3.83;;
7607;SDS011;3845;48.120;11.534;2023-10-08T08:20:19;7.73;;;3.90;;
7607;SDS011;3845;48.120;11.534;2023-10-08T08:22:47;9.13;;;3.90;;
7607;SDS011;3845;48.120;11.534;2023-10-08T08:25:15;7.63;;;3.40;;
7607;SDS011;3845;48.120;11.534;2023-10-08T08:27:44;7.23;;;3.53;;
7607;SDS011;3845;48.120;11.534;2023-10-08T08:30:12;7.43;;;3.77;;
7607;SDS011;3845;48.120;11.534;2023-10-08T08:32:45;8.57;;;4.10;;
7607;SDS011;3845;48.120;11.534;2023-10-08T08:35:13;8.20;;;4.27;;
7607;SDS011;3845;48.120;11.534;2023-10-08T08:37:41;5.03;;;3.23;;
7607;SDS011;3845;48.120;11.534;2023-10-08T08:40:07;6.57;;;3.90;;
7607;SDS011;3845;48.120;11.534;2023-10-08T08:42:45;7.63;;;3.70;;
7607;SDS011;3845;48.120;11.534;2023-10-08T08:45:22;5.90;;;3.77;;
7607;SDS011;3845;48.120;11.534;2023-10-08T08:47:51;10.30;;;5.10;;
7607;SDS011;3845;48.120;11.534;2023-10-08T08:50:17;7.77;;;5.10;;
7607;SDS011;3845;48.120;11.534;2023-10-08T08:52:42;7.53;;;4.47;;
7607;SDS011;3845;48.120;11.534;2023-10-08T08:55:08;7.13;;;3.37;;
7607;SDS011;3845;48.120;11.534;2023-10-08T08:57:45;8.03;;;3.80;;
7607;SDS011;3845;48.120;11.534;2023-10-08T09:00:12;10.07;;;5.00;;
7607;SDS011;3845;48.120;11.534;2023-10-08T09:02:39;8.17;;;3.47;;
7607;SDS011;3845;48.120;11.534;2023-10-08T09:05:09;6.67;;;3.27;;
7607;SDS011;3845;48.120;11.534;2023-10-08T09:10:24;6.83;;;3.00;;
7607;SDS011;3845;48.120;11.534;2023-10-08T09:12:54;8.73;;;2.83;;
7607;SDS011;3845;48.120;11.534;2023-10-08T09:15:25;7.13;;;2.93;;
7607;SDS011;3845;48.120;11.534;2023-10-08T09:17:54;7.47;;;3.23;;
7607;SDS011;3845;48.120;11.534;2023-10-08T09:20:21;7.33;;;3.00;;
7607;SDS011;3845;48.120;11.534;2023-10-08T09:22:59;9.27;;;3.00;;
7607;SDS011;3845;48.120;11.534;2023-10-08T09:25:32;7.03;;;3.97;;
7607;SDS011;3845;48.120;11.534;2023-10-08T09:27:58;6.60;;;3.87;;
7607;SDS011;3845;48.120;11.534;2023-10-08T09:30:23;9.93;;;4.90;;
7607;SDS011;3845;48.120;11.534;2023-10-08T09:32:50;8.50;;;4.67;;
7607;SDS011;3845;48.120;11.534;2023-10-08T09:35:16;7.77;;;3.77;;
7607;SDS011;3845;48.120;11.534;2023-10-08T09:37:42;7.80;;;3.33;;
7607;SDS011;3845;48.120;11.534;2023-10-08T09:40:09;7.07;;;3.47;;
7607;SDS011;3845;48.120;11.534;2023-10-08T09:42:37;8.27;;;3.30;;
7607;SDS011;3845;48.120;11.534;2023-10-08T09:45:03;5.30;;;2.90;;
7607;SDS011;3845;48.120;11.534;2023-10-08T09:47:31;4.07;;;2.90;;
7607;SDS011;3845;48.120;11.534;2023-10-08T09:50:04;7.43;;;3.43;;
7607;SDS011;3845;48.120;11.534;2023-10-08T09:52:34;6.57;;;3.50;;
7607;SDS011;3845;48.120;11.534;2023-10-08T09:55:08;6.87;;;3.10;;
7607;SDS011;3845;48.120;11.534;2023-10-08T09:57:35;7.47;;;3.43;;
7607;SDS011;3845;48.120;11.534;2023-10-08T10:00:01;5.73;;;2.80;;
7607;SDS011;3845;48.120;11.534;2023-10-08T10:02:27;6.90;;;3.10;;
7607;SDS011;3845;48.120;11.534;2023-10-08T10:04:56;7.87;;;3.00;;
7607;SDS011;3845;48.120;11.534;2023-10-08T10:07:21;9.07;;;2.80;;
7607;SDS011;3845;48.120;11.534;2023-10-08T10:09:50;7.50;;;2.50;;
7607;SDS011;3845;48.120;11.534;2023-10-08T10:12:20;5.10;;;2.47;;
7607;SDS011;3845;48.120;11.534;2023-10-08T10:14:51;5.47;;;2.90;;
7607;SDS011;3845;48.120;11.534;2023-10-08T10:17:20;6.60;;;3.50;;
7607;SDS011;3845;48.120;11.534;2023-10-08T10:19:54;6.70;;;3.20;;
7607;SDS011;3845;48.120;11.534;2023-10-08T10:22:30;7.70;;;3.53;;
7607;SDS011;3845;48.120;11.534;2023-10-08T10:25:00;13.23;;;4.10;;
7607;SDS011;3845;48.120;11.534;2023-10-08T10:27:39;7.87;;;3.70;;
7607;SDS011;3845;48.120;11.534;2023-10-08T10:30:29;10.87;;;3.63;;
7607;SDS011;3845;48.120;11.534;2023-10-08T10:32:55;8.70;;;3.63;;
7607;SDS011;3845;48.120;11.534;2023-10-08T10:35:24;9.47;;;3.83;;
7607;SDS011;3845;48.120;11.534;2023-10-08T10:37:52;10.03;;;3.10;;
7607;SDS011;3845;48.120;11.534;2023-10-08T10:40:20;8.70;;;3.50;;
7607;SDS011;3845;48.120;11.534;2023-10-08T10:42:58;8.93;;;3.90;;
7607;SDS011;3845;48.120;11.534;2023-10-08T10:45:28;9.83;;;3.60;;
7607;SDS011;3845;48.120;11.534;2023-10-08T10:48:07;10.80;;;3.67;;
7607;SDS011;3845;48.120;11.534;2023-10-08T10:50:41;7.03;;;3.53;;
7607;SDS011;3845;48.120;11.534;2023-10-08T10:53:21;8.67;;;3.43;;
7607;SDS011;3845;48.120;11.534;2023-10-08T10:55:47;8.90;;;4.20;;
7607;SDS011;3845;48.120;11.534;2023-10-08T10:58:25;9.70;;;3.40;;
7607;SDS011;3845;48.120;11.534;2023-10-08T11:00:51;11.43;;;3.63;;
7607;SDS011;3845;48.120;11.534;2023-10-08T11:03:24;8.83;;;3.80;;
7607;SDS011;3845;48.120;11.534;2023-10-08T11:05:57;7.53;;;3.10;;
7607;SDS011;3845;48.120;11.534;2023-10-08T11:08:31;9.33;;;3.50;;
7607;SDS011;3845;48.120;11.534;2023-10-08T11:10:59;11.03;;;4.13;;
7607;SDS011;3845;48.120;11.534;2023-10-08T11:13:30;12.13;;;4.20;;
7607;SDS011;3845;48.120;11.534;2023-10-08T11:16:02;8.30;;;3.43;;
7607;SDS011;3845;48.120;11.534;2023-10-08T11:18:28;7.97;;;3.23;;
7607;SDS011;3845;48.120;11.534;2023-10-08T11:21:04;6.67;;;2.70;;
7607;SDS011;3845;48.120;11.534;2023-10-08T11:23:48;5.83;;;2.77;;
7607;SDS011;3845;48.120;11.534;2023-10-08T11:26:37;7.23;;;2.83;;
7607;SDS011;3845;48.120;11.534;2023-10-08T11:29:19;10.53;;;3.30;;
7607;SDS011;3845;48.120;11.534;2023-10-08T11:31:50;12.43;;;6.13;;
7607;SDS011;3845;48.120;11.534;2023-10-08T11:34:16;9.30;;;3.60;;
7607;SDS011;3845;48.120;11.534;2023-10-08T11:36:44;10.43;;;3.80;;
7607;SDS011;3845;48.120;11.534;2023-10-08T11:39:20;7.53;;;3.63;;
7607;SDS011;3845;48.120;11.534;2023-10-08T11:41:58;8.90;;;4.40;;
7607;SDS011;3845;48.120;11.534;2023-10-08T11:44:29;8.03;;;4.53;;
7607;SDS011;3845;48.120;11.534;2023-10-08T11:46:55;14.57;;;7.33;;
7607;SDS011;3845;48.120;11.534;2023-10-08T11:49:25;14.20;;;7.20;;
7607;SDS011;3845;48.120;11.534;2023-10-08T11:51:51;9.50;;;5.23;;
7607;SDS011;3845;48.120;11.534;2023-10-08T11:54:20;9.53;;;3.97;;
7607;SDS011;3845;48.120;11.534;2023-10-08T11:56:48;8.63;;;3.20;;
7607;SDS011;3845;48.120;11.534;2023-10-08T11:59:13;11.23;;;4.30;;
7607;SDS011;3845;48.120;11.534;2023-10-08T12:01:39;10.17;;;3.93;;
7607;SDS011;3845;48.120;11.534;2023-10-08T12:04:07;8.60;;;3.43;;
7607;SDS011;3845;48.120;11.534;2023-10-08T12:06:41;11.03;;;3.83;;
7607;SDS011;3845;48.120;11.534;2023-10-08T12:09:12;9.57;;;3.40;;
7607;SDS011;3845;48.120;11.534;2023-10-08T12:11:38;8.80;;;3.50;;
7607;SDS011;3845;48.120;11.534;2023-10-08T12:14:04;13.77;;;5.20;;
7607;SDS011;3845;48.120;11.534;2023-10-08T12:16:30;10.20;;;4.47;;
7607;SDS011;3845;48.120;11.534;2023-10-08T12:19:00;10.90;;;4.67;;
7607;SDS011;3845;48.120;11.534;2023-10-08T12:21:26;11.47;;;3.97;;
7607;SDS011;3845;48.120;11.534;2023-10-08T12:23:54;8.10;;;3.43;;
7607;SDS011;3845;48.120;11.534;2023-10-08T12:26:20;14.13;;;4.57;;
7607;SDS011;3845;48.120;11.534;2023-10-08T12:28:46;13.23;;;4.00;;
7607;SDS011;3845;48.120;11.534;2023-10-08T12:31:13;11.23;;;3.70;;
7607;SDS011;3845;48.120;11.534;2023-10-08T12:33:40;6.47;;;3.10;;
7607;SDS011;3845;48.120;11.534;2023-10-08T12:36:06;8.03;;;3.23;;
7607;SDS011;3845;48.120;11.534;2023-10-08T12:38:38;10.87;;;4.60;;
7607;SDS011;3845;48.120;11.534;2023-10-08T12:41:07;12.50;;;4.53;;
7607;SDS011;3845;48.120;11.534;2023-10-08T12:43:37;12.67;;;4.07;;
7607;SDS011;3845;48.120;11.534;2023-10-08T12:46:04;10.03;;;3.80;;
7607;SDS011;3845;48.120;11.534;2023-10-08T12:48:29;11.10;;;4.40;;
7607;SDS011;3845;48.120;11.534;2023-10-08T12:50:54;8.80;;;3.43;;
7607;SDS011;3845;48.120;11.534;2023-10-08T12:53:24;11.13;;;3.90;;
7607;SDS011;3845;48.120;11.534;2023-10-08T12:56:05;10.10;;;4.43;;
7607;SDS011;3845;48.120;11.534;2023-10-08T12:58:32;9.73;;;3.73;;
7607;SDS011;3845;48.120;11.534;2023-10-08T13:01:06;9.90;;;4.30;;
7607;SDS011;3845;48.120;11.534;2023-10-08T13:03:32;10.77;;;4.77;;
7607;SDS011;3845;48.120;11.534;2023-10-08T13:05:58;8.07;;;4.10;;
7607;SDS011;3845;48.120;11.534;2023-10-08T13:08:30;9.23;;;4.60;;
7607;SDS011;3845;48.120;11.534;2023-10-08T13:10:56;8.97;;;5.10;;
7607;SDS011;3845;48.120;11.534;2023-10-08T13:13:26;11.40;;;4.93;;
7607;SDS011;3845;48.120;11.534;2023-10-08T13:15:54;9.43;;;4.27;;
7607;SDS011;3845;48.120;11.534;2023-10-08T13:18:24;13.67;;;4.90;;
7607;SDS011;3845;48.120;11.534;2023-10-08T13:20:52;10.00;;;4.07;;
7607;SDS011;3845;48.120;11.534;2023-10-08T13:23:18;10.83;;;3.87;;
7607;SDS011;3845;48.120;11.534;2023-10-08T13:25:45;6.93;;;3.37;;
7607;SDS011;3845;48.120;11.534;2023-10-08T13:28:19;15.20;;;6.90;;
7607;SDS011;3845;48.120;11.534;2023-10-08T13:30:48;12.23;;;5.37;;
7607;SDS011;3845;48.120;11.534;2023-10-08T13:33:17;15.87;;;6.73;;
7607;SDS011;3845;48.120;11.534;2023-10-08T13:35:47;10.43;;;5.20;;
7607;SDS011;3845;48.120;11.534;2023-10-08T13:38:15;12.57;;;4.33;;
7607;SDS011;3845;48.120;11.534;2023-10-08T13:40:41;9.30;;;3.97;;
7607;SDS011;3845;48.120;11.534;2023-10-08T13:43:26;12.70;;;6.40;;
7607;SDS011;3845;48.120;11.534;2023-10-08T13:45:58;10.23;;;5.07;;
7607;SDS011;3845;48.120;11.534;2023-10-08T13:48:28;13.20;;;4.77;;
7607;SDS011;3845;48.120;11.534;2023-10-08T13:50:54;11.37;;;4.27;;
7607;SDS011;3845;48.120;11.534;2023-10-08T13:53:19;7.57;;;3.70;;
7607;SDS011;3845;48.120;11.534;2023-10-08T13:55:45;10.13;;;3.83;;
7607;SDS011;3845;48.120;11.534;2023-10-08T13:58:11;9.23;;;3.80;;
7607;SDS011;3845;48.120;11.534;2023-10-08T14:00:38;8.67;;;3.53;;
7607;SDS011;3845;48.120;11.534;2023-10-08T14:03:03;12.80;;;4.87;;
7607;SDS011;3845;48.120;11.534;2023-10-08T14:05:33;10.13;;;4.17;;
7607;SDS011;3845;48.120;11.534;2023-10-08T14:07:59;13.17;;;3.97;;
7607;SDS011;3845;48.120;11.534;2023-10-08T14:10:26;10.77;;;4.00;;
7607;SDS011;3845;48.120;11.534;2023-10-08T14:12:54;8.60;;;3.63;;
7607;SDS011;3845;48.120;11.534;2023-10-08T14:15:20;8.60;;;3.53;;
7607;SDS011;3845;48.120;11.534;2023-10-08T14:17:47;11.57;;;4.40;;
7607;SDS011;3845;48.120;11.534;2023-10-08T14:20:14;9.43;;;4.10;;
7607;SDS011;3845;48.120;11.534;2023-10-08T14:22:47;9.80;;;3.90;;
7607;SDS011;3845;48.120;11.534;2023-10-08T14:25:22;8.30;;;3.17;;
7607;SDS011;3845;48.120;11.534;2023-10-08T14:27:50;8.87;;;4.07;;
7607;SDS011;3845;48.120;11.534;2023-10-08T14:30:18;8.07;;;3.20;;
7607;SDS011;3845;48.120;11.534;2023-10-08T14:32:49;9.67;;;3.93;;
7607;SDS011;3845;48.120;11.534;2023-10-08T14:35:14;11.43;;;4.50;;
7607;SDS011;3845;48.120;11.534;2023-10-08T14:38:01;10.77;;;5.23;;
7607;SDS011;3845;48.120;11.534;2023-10-08T14:40:46;9.20;;;4.80;;
7607;SDS011;3845;48.120;11.534;2023-10-08T14:43:30;12.57;;;4.60;;
7607;SDS011;3845;48.120;11.534;2023-10-08T14:45:59;9.97;;;3.47;;
7607;SDS011;3845;48.120;11.534;2023-10-08T14:48:29;13.90;;;5.80;;
7607;SDS011;3845;48.120;11.534;2023-10-08T14:50:54;10.23;;;5.23;;
7607;SDS011;3845;48.120;11.534;2023-10-08T14:53:21;10.23;;;4.30;;
7607;SDS011;3845;48.120;11.534;2023-10-08T14:55:48;10.13;;;3.73;;
7607;SDS011;3845;48.120;11.534;2023-10-08T14:58:14;6.53;;;3.53;;
7607;SDS011;3845;48.120;11.534;2023-10-08T15:00:39;6.47;;;3.27;;
7607;SDS011;3845;48.120;11.534;2023-10-08T15:03:07;9.27;;;3.20;;
7607;SDS011;3845;48.120;11.534;2023-10-08T15:05:33;7.20;;;3.47;;
7607;SDS011;3845;48.120;11.534;2023-10-08T15:08:01;6.10;;;2.87;;
7607;SDS011;3845;48.120;11.534;2023-10-08T15:10:28;9.83;;;3.20;;
7607;SDS011;3845;48.120;11.534;2023-10-08T15:12:55;7.77;;;2.77;;
7607;SDS011;3845;48.120;11.534;2023-10-08T15:15:22;5.27;;;2.87;;
7607;SDS011;3845;48.120;11.534;2023-10-08T15:17:49;6.27;;;3.10;;
7607;SDS011;3845;48.120;11.534;2023-10-08T15:20:15;4.83;;;2.87;;
7607;SDS011;3845;48.120;11.534;2023-10-08T15:22:45;5.90;;;2.60;;
7607;SDS011;3845;48.120;11.534;2023-10-08T15:25:14;5.63;;;2.93;;
7607;SDS011;3845;48.120;11.534;2023-10-08T15:27:45;5.77;;;2.80;;